sensor_id;sensor_type;location;lat;lon;timestamp;P1;durP1;ratioP1;P2;durP2;ratioP2
84652;SDS011;74883;48.882;2.092;2024-01-30T00:02:10;7.93;;;2.97;;
84652;SDS011;74883;48.882;2.092;2024-01-30T00:04:35;6.47;;;2.90;;
84652;SDS011;74883;48.882;2.092;2024-01-30T00:07:00;6.10;;;2.77;;
84652;SDS011;74883;48.882;2.092;2024-01-30T00:09:25;6.77;;;2.83;;
84652;SDS011;74883;48.882;2.092;2024-01-30T00:11:51;7.80;;;3.07;;
84652;SDS011;74883;48.882;2.092;2024-01-30T00:14:16;5.70;;;2.93;;
84652;SDS011;74883;48.882;2.092;2024-01-30T00:16:41;10.57;;;3.70;;
84652;SDS011;74883;48.882;2.092;2024-01-30T00:19:07;7.67;;;2.67;;
84652;SDS011;74883;48.882;2.092;2024-01-30T00:21:33;7.13;;;2.92;;
84652;SDS011;74883;48.882;2.092;2024-01-30T00:23:59;13.43;;;3.35;;
84652;SDS011;74883;48.882;2.092;2024-01-30T00:26:24;10.35;;;2.97;;
84652;SDS011;74883;48.882;2.092;2024-01-30T00:28:50;6.10;;;2.87;;
84652;SDS011;74883;48.882;2.092;2024-01-30T00:31:15;7.60;;;2.63;;
84652;SDS011;74883;48.882;2.092;2024-01-30T00:33:43;7.90;;;2.72;;
84652;SDS011;74883;48.882;2.092;2024-01-30T00:36:09;8.83;;;3.20;;
84652;SDS011;74883;48.882;2.092;2024-01-30T00:38:34;5.60;;;2.60;;
84652;SDS011;74883;48.882;2.092;2024-01-30T00:41:00;7.13;;;2.78;;
84652;SDS011;74883;48.882;2.092;2024-01-30T00:43:27;6.78;;;2.80;;
84652;SDS011;74883;48.882;2.092;2024-01-30T00:45:52;9.63;;;2.58;;
84652;SDS011;74883;48.882;2.092;2024-01-30T00:48:18;8.07;;;3.60;;
84652;SDS011;74883;48.882;2.092;2024-01-30T00:50:43;7.70;;;3.00;;
84652;SDS011;74883;48.882;2.092;2024-01-30T00:53:09;5.90;;;2.22;;
84652;SDS011;74883;48.882;2.092;2024-01-30T00:55:35;9.35;;;2.60;;
84652;SDS011;74883;48.882;2.092;2024-01-30T00:58:00;8.02;;;2.78;;
84652;SDS011;74883;48.882;2.092;2024-01-30T01:00:25;6.75;;;2.70;;
84652;SDS011;74883;48.882;2.092;2024-01-30T01:02:54;6.15;;;2.35;;
84652;SDS011;74883;48.882;2.092;2024-01-30T01:05:20;6.90;;;2.50;;
84652;SDS011;74883;48.882;2.092;2024-01-30T01:07:45;7.65;;;3.00;;
84652;SDS011;74883;48.882;2.092;2024-01-30T01:10:12;7.43;;;2.75;;
84652;SDS011;74883;48.882;2.092;2024-01-30T01:12:38;6.07;;;2.95;;
84652;SDS011;74883;48.882;2.092;2024-01-30T01:15:04;8.15;;;2.63;;
84652;SDS011;74883;48.882;2.092;2024-01-30T01:17:30;6.82;;;3.13;;
84652;SDS011;74883;48.882;2.092;2024-01-30T01:19:55;7.03;;;2.63;;
84652;SDS011;74883;48.882;2.092;2024-01-30T01:22:20;6.80;;;2.57;;
84652;SDS011;74883;48.882;2.092;2024-01-30T01:24:46;9.77;;;3.07;;
84652;SDS011;74883;48.882;2.092;2024-01-30T01:27:11;8.03;;;2.77;;
84652;SDS011;74883;48.882;2.092;2024-01-30T01:29:37;9.05;;;3.17;;
84652;SDS011;74883;48.882;2.092;2024-01-30T01:32:02;9.85;;;3.25;;
84652;SDS011;74883;48.882;2.092;2024-01-30T01:34:28;9.00;;;2.85;;
84652;SDS011;74883;48.882;2.092;2024-01-30T01:36:53;10.20;;;2.80;;
84652;SDS011;74883;48.882;2.092;2024-01-30T01:39:20;9.50;;;2.90;;
84652;SDS011;74883;48.882;2.092;2024-01-30T01:41:45;10.50;;;2.58;;
84652;SDS011;74883;48.882;2.092;2024-01-30T01:44:11;8.57;;;3.50;;
84652;SDS011;74883;48.882;2.092;2024-01-30T01:46:36;10.52;;;3.08;;
84652;SDS011;74883;48.882;2.092;2024-01-30T01:49:02;7.50;;;2.97;;
84652;SDS011;74883;48.882;2.092;2024-01-30T01:51:29;6.00;;;2.78;;
84652;SDS011;74883;48.882;2.092;2024-01-30T01:53:55;6.00;;;2.95;;
84652;SDS011;74883;48.882;2.092;2024-01-30T01:56:22;5.78;;;2.38;;
84652;SDS011;74883;48.882;2.092;2024-01-30T01:58:48;5.85;;;2.80;;
84652;SDS011;74883;48.882;2.092;2024-01-30T02:01:14;11.02;;;3.17;;
84652;SDS011;74883;48.882;2.092;2024-01-30T02:03:43;7.68;;;2.60;;
84652;SDS011;74883;48.882;2.092;2024-01-30T02:06:10;9.93;;;2.95;;
84652;SDS011;74883;48.882;2.092;2024-01-30T02:08:37;9.02;;;3.05;;
84652;SDS011;74883;48.882;2.092;2024-01-30T02:11:03;8.02;;;3.05;;
84652;SDS011;74883;48.882;2.092;2024-01-30T02:13:28;7.57;;;2.97;;
84652;SDS011;74883;48.882;2.092;2024-01-30T02:15:54;12.60;;;2.70;;
84652;SDS011;74883;48.882;2.092;2024-01-30T02:18:19;9.33;;;2.80;;
84652;SDS011;74883;48.882;2.092;2024-01-30T02:20:46;9.45;;;2.80;;
84652;SDS011;74883;48.882;2.092;2024-01-30T02:23:12;11.25;;;3.50;;
84652;SDS011;74883;48.882;2.092;2024-01-30T02:25:40;11.30;;;3.15;;
84652;SDS011;74883;48.882;2.092;2024-01-30T02:28:09;8.10;;;3.25;;
84652;SDS011;74883;48.882;2.092;2024-01-30T02:30:36;8.32;;;3.17;;
84652;SDS011;74883;48.882;2.092;2024-01-30T02:33:01;8.23;;;3.43;;
84652;SDS011;74883;48.882;2.092;2024-01-30T02:35:26;12.50;;;3.63;;
84652;SDS011;74883;48.882;2.092;2024-01-30T02:37:52;9.98;;;3.20;;
84652;SDS011;74883;48.882;2.092;2024-01-30T02:40:17;10.57;;;3.27;;
84652;SDS011;74883;48.882;2.092;2024-01-30T02:42:42;6.40;;;3.10;;
84652;SDS011;74883;48.882;2.092;2024-01-30T02:45:09;9.55;;;3.20;;
84652;SDS011;74883;48.882;2.092;2024-01-30T02:47:35;8.13;;;3.45;;
84652;SDS011;74883;48.882;2.092;2024-01-30T02:50:00;9.47;;;4.17;;
84652;SDS011;74883;48.882;2.092;2024-01-30T02:52:25;8.80;;;3.23;;
84652;SDS011;74883;48.882;2.092;2024-01-30T02:54:50;7.07;;;3.10;;
84652;SDS011;74883;48.882;2.092;2024-01-30T02:57:16;6.57;;;3.00;;
84652;SDS011;74883;48.882;2.092;2024-01-30T02:59:41;13.10;;;3.77;;
84652;SDS011;74883;48.882;2.092;2024-01-30T03:02:06;8.70;;;3.42;;
84652;SDS011;74883;48.882;2.092;2024-01-30T03:04:32;9.23;;;3.57;;
84652;SDS011;74883;48.882;2.092;2024-01-30T03:06:57;7.93;;;3.28;;
84652;SDS011;74883;48.882;2.092;2024-01-30T03:09:23;10.07;;;3.37;;
84652;SDS011;74883;48.882;2.092;2024-01-30T03:11:48;8.23;;;3.30;;
84652;SDS011;74883;48.882;2.092;2024-01-30T03:14:13;9.23;;;3.27;;
84652;SDS011;74883;48.882;2.092;2024-01-30T03:16:39;7.77;;;2.97;;
84652;SDS011;74883;48.882;2.092;2024-01-30T03:19:05;10.23;;;3.63;;
84652;SDS011;74883;48.882;2.092;2024-01-30T03:21:32;8.80;;;3.63;;
84652;SDS011;74883;48.882;2.092;2024-01-30T03:23:58;10.95;;;3.40;;
84652;SDS011;74883;48.882;2.092;2024-01-30T03:26:24;9.60;;;3.90;;
84652;SDS011;74883;48.882;2.092;2024-01-30T03:28:49;8.30;;;3.63;;
84652;SDS011;74883;48.882;2.092;2024-01-30T03:31:15;15.10;;;3.73;;
84652;SDS011;74883;48.882;2.092;2024-01-30T03:33:41;8.18;;;3.60;;
84652;SDS011;74883;48.882;2.092;2024-01-30T03:36:07;9.23;;;3.63;;
84652;SDS011;74883;48.882;2.092;2024-01-30T03:38:33;10.07;;;4.03;;
84652;SDS011;74883;48.882;2.092;2024-01-30T03:40:59;6.32;;;2.42;;
84652;SDS011;74883;48.882;2.092;2024-01-30T03:43:25;8.77;;;3.50;;
84652;SDS011;74883;48.882;2.092;2024-01-30T03:45:50;9.05;;;3.53;;
84652;SDS011;74883;48.882;2.092;2024-01-30T03:48:15;8.43;;;3.10;;
84652;SDS011;74883;48.882;2.092;2024-01-30T03:50:41;8.23;;;3.90;;
84652;SDS011;74883;48.882;2.092;2024-01-30T03:53:06;10.37;;;3.87;;
84652;SDS011;74883;48.882;2.092;2024-01-30T03:55:31;6.53;;;3.03;;
84652;SDS011;74883;48.882;2.092;2024-01-30T03:57:57;13.03;;;4.23;;
84652;SDS011;74883;48.882;2.092;2024-01-30T04:00:22;12.50;;;4.40;;
84652;SDS011;74883;48.882;2.092;2024-01-30T04:02:47;10.50;;;3.40;;
84652;SDS011;74883;48.882;2.092;2024-01-30T04:05:12;9.77;;;3.67;;
84652;SDS011;74883;48.882;2.092;2024-01-30T04:07:38;8.70;;;3.70;;
84652;SDS011;74883;48.882;2.092;2024-01-30T04:10:03;9.27;;;4.17;;
84652;SDS011;74883;48.882;2.092;2024-01-30T04:12:31;13.00;;;4.35;;
84652;SDS011;74883;48.882;2.092;2024-01-30T04:14:56;9.95;;;4.25;;
84652;SDS011;74883;48.882;2.092;2024-01-30T04:17:21;10.33;;;4.60;;
84652;SDS011;74883;48.882;2.092;2024-01-30T04:19:47;8.07;;;3.57;;
84652;SDS011;74883;48.882;2.092;2024-01-30T04:22:12;10.10;;;4.27;;
84652;SDS011;74883;48.882;2.092;2024-01-30T04:24:37;8.03;;;3.10;;
84652;SDS011;74883;48.882;2.092;2024-01-30T04:27:03;12.40;;;4.27;;
84652;SDS011;74883;48.882;2.092;2024-01-30T04:29:28;7.85;;;3.70;;
84652;SDS011;74883;48.882;2.092;2024-01-30T04:31:54;7.60;;;4.10;;
84652;SDS011;74883;48.882;2.092;2024-01-30T04:34:19;9.07;;;3.60;;
84652;SDS011;74883;48.882;2.092;2024-01-30T04:36:44;9.97;;;3.30;;
84652;SDS011;74883;48.882;2.092;2024-01-30T04:39:10;9.77;;;3.83;;
84652;SDS011;74883;48.882;2.092;2024-01-30T04:41:36;11.07;;;3.60;;
84652;SDS011;74883;48.882;2.092;2024-01-30T04:44:01;6.80;;;3.57;;
84652;SDS011;74883;48.882;2.092;2024-01-30T04:46:26;9.93;;;3.53;;
84652;SDS011;74883;48.882;2.092;2024-01-30T04:48:52;10.63;;;3.43;;
84652;SDS011;74883;48.882;2.092;2024-01-30T04:51:17;8.47;;;3.50;;
84652;SDS011;74883;48.882;2.092;2024-01-30T04:53:42;10.43;;;3.63;;
84652;SDS011;74883;48.882;2.092;2024-01-30T04:56:07;12.10;;;4.23;;
84652;SDS011;74883;48.882;2.092;2024-01-30T04:58:33;9.82;;;3.17;;
84652;SDS011;74883;48.882;2.092;2024-01-30T05:00:58;10.90;;;3.40;;
84652;SDS011;74883;48.882;2.092;2024-01-30T05:03:23;9.77;;;3.50;;
84652;SDS011;74883;48.882;2.092;2024-01-30T05:05:49;9.20;;;3.40;;
84652;SDS011;74883;48.882;2.092;2024-01-30T05:08:14;6.60;;;3.42;;
84652;SDS011;74883;48.882;2.092;2024-01-30T05:10:40;9.70;;;3.50;;
84652;SDS011;74883;48.882;2.092;2024-01-30T05:13:05;9.35;;;3.45;;
84652;SDS011;74883;48.882;2.092;2024-01-30T05:15:30;7.97;;;3.45;;
84652;SDS011;74883;48.882;2.092;2024-01-30T05:17:56;13.73;;;3.80;;
84652;SDS011;74883;48.882;2.092;2024-01-30T05:20:21;13.10;;;3.87;;
84652;SDS011;74883;48.882;2.092;2024-01-30T05:22:46;7.90;;;3.80;;
84652;SDS011;74883;48.882;2.092;2024-01-30T05:25:12;10.67;;;3.83;;
84652;SDS011;74883;48.882;2.092;2024-01-30T05:27:38;11.00;;;4.00;;
84652;SDS011;74883;48.882;2.092;2024-01-30T05:30:05;9.15;;;3.85;;
84652;SDS011;74883;48.882;2.092;2024-01-30T05:32:31;8.55;;;3.30;;
84652;SDS011;74883;48.882;2.092;2024-01-30T05:34:57;10.17;;;3.80;;
84652;SDS011;74883;48.882;2.092;2024-01-30T05:37:22;13.43;;;5.00;;
84652;SDS011;74883;48.882;2.092;2024-01-30T05:39:47;10.13;;;3.90;;
84652;SDS011;74883;48.882;2.092;2024-01-30T05:42:13;11.83;;;3.40;;
84652;SDS011;74883;48.882;2.092;2024-01-30T05:44:38;14.57;;;4.53;;
84652;SDS011;74883;48.882;2.092;2024-01-30T05:47:03;7.70;;;3.40;;
84652;SDS011;74883;48.882;2.092;2024-01-30T05:49:29;11.32;;;4.38;;
84652;SDS011;74883;48.882;2.092;2024-01-30T05:51:54;11.63;;;3.87;;
84652;SDS011;74883;48.882;2.092;2024-01-30T05:54:19;10.13;;;4.10;;
84652;SDS011;74883;48.882;2.092;2024-01-30T05:56:44;10.77;;;3.50;;
84652;SDS011;74883;48.882;2.092;2024-01-30T05:59:10;10.87;;;3.40;;
84652;SDS011;74883;48.882;2.092;2024-01-30T06:01:35;9.97;;;3.43;;
84652;SDS011;74883;48.882;2.092;2024-01-30T06:04:00;13.27;;;4.15;;
84652;SDS011;74883;48.882;2.092;2024-01-30T06:06:26;9.27;;;3.58;;
84652;SDS011;74883;48.882;2.092;2024-01-30T06:08:52;13.82;;;4.28;;
84652;SDS011;74883;48.882;2.092;2024-01-30T06:11:20;11.23;;;4.72;;
84652;SDS011;74883;48.882;2.092;2024-01-30T06:13:45;15.63;;;4.15;;
84652;SDS011;74883;48.882;2.092;2024-01-30T06:16:12;14.82;;;5.32;;
84652;SDS011;74883;48.882;2.092;2024-01-30T06:18:37;10.80;;;4.07;;
84652;SDS011;74883;48.882;2.092;2024-01-30T06:21:03;10.65;;;4.35;;
84652;SDS011;74883;48.882;2.092;2024-01-30T06:23:29;11.27;;;3.75;;
84652;SDS011;74883;48.882;2.092;2024-01-30T06:25:54;10.27;;;3.60;;
84652;SDS011;74883;48.882;2.092;2024-01-30T06:28:20;13.73;;;5.90;;
84652;SDS011;74883;48.882;2.092;2024-01-30T06:30:45;13.70;;;4.93;;
84652;SDS011;74883;48.882;2.092;2024-01-30T06:33:11;10.13;;;4.30;;
84652;SDS011;74883;48.882;2.092;2024-01-30T06:35:38;8.45;;;3.53;;
84652;SDS011;74883;48.882;2.092;2024-01-30T06:38:05;14.38;;;4.60;;
84652;SDS011;74883;48.882;2.092;2024-01-30T06:40:30;10.88;;;4.20;;
84652;SDS011;74883;48.882;2.092;2024-01-30T06:42:56;14.13;;;4.83;;
84652;SDS011;74883;48.882;2.092;2024-01-30T06:45:21;12.17;;;4.40;;
84652;SDS011;74883;48.882;2.092;2024-01-30T06:47:46;9.30;;;4.53;;
84652;SDS011;74883;48.882;2.092;2024-01-30T06:50:14;10.20;;;4.70;;
84652;SDS011;74883;48.882;2.092;2024-01-30T06:52:40;10.63;;;4.88;;
84652;SDS011;74883;48.882;2.092;2024-01-30T06:55:05;12.60;;;3.60;;
84652;SDS011;74883;48.882;2.092;2024-01-30T06:57:31;11.13;;;5.38;;
84652;SDS011;74883;48.882;2.092;2024-01-30T06:59:56;9.20;;;3.80;;
84652;SDS011;74883;48.882;2.092;2024-01-30T07:02:21;12.23;;;4.07;;
84652;SDS011;74883;48.882;2.092;2024-01-30T07:04:47;9.10;;;4.00;;
84652;SDS011;74883;48.882;2.092;2024-01-30T07:07:12;11.30;;;4.90;;
84652;SDS011;74883;48.882;2.092;2024-01-30T07:09:38;13.07;;;4.57;;
84652;SDS011;74883;48.882;2.092;2024-01-30T07:12:04;9.50;;;4.20;;
84652;SDS011;74883;48.882;2.092;2024-01-30T07:14:29;10.68;;;4.60;;
84652;SDS011;74883;48.882;2.092;2024-01-30T07:16:55;10.05;;;4.35;;
84652;SDS011;74883;48.882;2.092;2024-01-30T07:19:20;13.10;;;4.73;;
84652;SDS011;74883;48.882;2.092;2024-01-30T07:21:45;9.80;;;4.00;;
84652;SDS011;74883;48.882;2.092;2024-01-30T07:24:11;9.10;;;3.67;;
84652;SDS011;74883;48.882;2.092;2024-01-30T07:26:37;15.85;;;4.32;;
84652;SDS011;74883;48.882;2.092;2024-01-30T07:29:02;15.00;;;4.90;;
84652;SDS011;74883;48.882;2.092;2024-01-30T07:31:28;10.80;;;4.25;;
84652;SDS011;74883;48.882;2.092;2024-01-30T07:33:54;10.40;;;4.03;;
84652;SDS011;74883;48.882;2.092;2024-01-30T07:36:19;11.27;;;4.35;;
84652;SDS011;74883;48.882;2.092;2024-01-30T07:38:45;12.15;;;4.43;;
84652;SDS011;74883;48.882;2.092;2024-01-30T07:41:10;12.85;;;5.20;;
84652;SDS011;74883;48.882;2.092;2024-01-30T07:43:38;11.93;;;4.30;;
84652;SDS011;74883;48.882;2.092;2024-01-30T07:46:04;11.85;;;4.68;;
84652;SDS011;74883;48.882;2.092;2024-01-30T07:48:31;13.23;;;4.15;;
84652;SDS011;74883;48.882;2.092;2024-01-30T07:50:58;10.25;;;4.97;;
84652;SDS011;74883;48.882;2.092;2024-01-30T07:53:24;12.50;;;4.67;;
84652;SDS011;74883;48.882;2.092;2024-01-30T07:55:49;8.38;;;3.78;;
84652;SDS011;74883;48.882;2.092;2024-01-30T07:58:14;11.33;;;4.20;;
84652;SDS011;74883;48.882;2.092;2024-01-30T08:00:40;9.47;;;4.07;;
84652;SDS011;74883;48.882;2.092;2024-01-30T08:03:05;11.67;;;4.47;;
84652;SDS011;74883;48.882;2.092;2024-01-30T08:05:30;14.93;;;5.23;;
84652;SDS011;74883;48.882;2.092;2024-01-30T08:07:56;12.43;;;4.68;;
84652;SDS011;74883;48.882;2.092;2024-01-30T08:10:21;17.33;;;5.88;;
84652;SDS011;74883;48.882;2.092;2024-01-30T08:12:47;14.10;;;5.03;;
84652;SDS011;74883;48.882;2.092;2024-01-30T08:15:12;13.07;;;5.20;;
84652;SDS011;74883;48.882;2.092;2024-01-30T08:17:40;12.93;;;4.85;;
84652;SDS011;74883;48.882;2.092;2024-01-30T08:20:06;14.43;;;5.82;;
84652;SDS011;74883;48.882;2.092;2024-01-30T08:24:58;14.80;;;5.63;;
84652;SDS011;74883;48.882;2.092;2024-01-30T08:27:23;13.30;;;5.20;;
84652;SDS011;74883;48.882;2.092;2024-01-30T08:29:49;22.90;;;6.30;;
84652;SDS011;74883;48.882;2.092;2024-01-30T08:32:15;12.52;;;5.60;;
84652;SDS011;74883;48.882;2.092;2024-01-30T08:34:40;8.15;;;4.40;;
84652;SDS011;74883;48.882;2.092;2024-01-30T08:37:06;18.10;;;5.40;;
84652;SDS011;74883;48.882;2.092;2024-01-30T08:39:31;15.40;;;6.70;;
84652;SDS011;74883;48.882;2.092;2024-01-30T08:41:56;14.07;;;5.23;;
84652;SDS011;74883;48.882;2.092;2024-01-30T08:44:21;13.60;;;5.23;;
84652;SDS011;74883;48.882;2.092;2024-01-30T08:46:47;20.53;;;6.03;;
84652;SDS011;74883;48.882;2.092;2024-01-30T08:49:13;13.63;;;4.93;;
84652;SDS011;74883;48.882;2.092;2024-01-30T08:51:41;12.07;;;5.47;;
84652;SDS011;74883;48.882;2.092;2024-01-30T08:54:06;15.80;;;6.47;;
84652;SDS011;74883;48.882;2.092;2024-01-30T08:56:32;14.20;;;6.13;;
84652;SDS011;74883;48.882;2.092;2024-01-30T08:58:57;13.00;;;4.77;;
84652;SDS011;74883;48.882;2.092;2024-01-30T09:01:22;16.37;;;6.33;;
84652;SDS011;74883;48.882;2.092;2024-01-30T09:03:48;16.00;;;6.43;;
84652;SDS011;74883;48.882;2.092;2024-01-30T09:06:13;13.63;;;4.87;;
84652;SDS011;74883;48.882;2.092;2024-01-30T09:08:39;6.95;;;2.92;;
84652;SDS011;74883;48.882;2.092;2024-01-30T09:13:39;11.30;;;4.90;;
84652;SDS011;74883;48.882;2.092;2024-01-30T09:16:05;12.35;;;5.68;;
84652;SDS011;74883;48.882;2.092;2024-01-30T09:18:31;13.25;;;4.55;;
84652;SDS011;74883;48.882;2.092;2024-01-30T09:20:56;15.53;;;4.47;;
84652;SDS011;74883;48.882;2.092;2024-01-30T09:23:21;11.57;;;4.70;;
84652;SDS011;74883;48.882;2.092;2024-01-30T09:25:47;14.95;;;5.57;;
84652;SDS011;74883;48.882;2.092;2024-01-30T09:28:12;13.40;;;4.80;;
84652;SDS011;74883;48.882;2.092;2024-01-30T09:30:37;15.80;;;5.13;;
84652;SDS011;74883;48.882;2.092;2024-01-30T09:33:03;11.83;;;4.27;;
84652;SDS011;74883;48.882;2.092;2024-01-30T09:35:28;15.88;;;4.93;;
84652;SDS011;74883;48.882;2.092;2024-01-30T09:37:54;8.30;;;3.63;;
84652;SDS011;74883;48.882;2.092;2024-01-30T09:40:20;13.77;;;5.43;;
84652;SDS011;74883;48.882;2.092;2024-01-30T09:42:49;13.35;;;3.92;;
84652;SDS011;74883;48.882;2.092;2024-01-30T09:45:15;10.00;;;3.92;;
84652;SDS011;74883;48.882;2.092;2024-01-30T09:47:44;11.02;;;4.93;;
84652;SDS011;74883;48.882;2.092;2024-01-30T09:50:12;10.48;;;3.30;;
84652;SDS011;74883;48.882;2.092;2024-01-30T09:52:41;11.93;;;4.28;;
84652;SDS011;74883;48.882;2.092;2024-01-30T09:55:10;11.32;;;4.57;;
84652;SDS011;74883;48.882;2.092;2024-01-30T09:57:35;13.63;;;4.18;;
84652;SDS011;74883;48.882;2.092;2024-01-30T10:00:02;11.40;;;3.78;;
84652;SDS011;74883;48.882;2.092;2024-01-30T10:02:28;8.00;;;3.35;;
84652;SDS011;74883;48.882;2.092;2024-01-30T10:04:54;9.60;;;3.20;;
84652;SDS011;74883;48.882;2.092;2024-01-30T10:07:19;9.10;;;3.60;;
84652;SDS011;74883;48.882;2.092;2024-01-30T10:09:45;9.98;;;3.47;;
84652;SDS011;74883;48.882;2.092;2024-01-30T10:12:11;12.50;;;3.90;;
84652;SDS011;74883;48.882;2.092;2024-01-30T10:14:40;11.15;;;3.35;;
84652;SDS011;74883;48.882;2.092;2024-01-30T10:17:09;8.20;;;3.03;;
84652;SDS011;74883;48.882;2.092;2024-01-30T10:19:38;14.30;;;3.63;;
84652;SDS011;74883;48.882;2.092;2024-01-30T10:22:05;10.88;;;3.38;;
84652;SDS011;74883;48.882;2.092;2024-01-30T10:24:30;6.13;;;2.92;;
84652;SDS011;74883;48.882;2.092;2024-01-30T10:26:56;9.80;;;3.55;;
84652;SDS011;74883;48.882;2.092;2024-01-30T10:29:22;12.65;;;3.17;;
84652;SDS011;74883;48.882;2.092;2024-01-30T10:32:00;12.20;;;3.47;;
84652;SDS011;74883;48.882;2.092;2024-01-30T10:34:26;10.07;;;2.80;;
84652;SDS011;74883;48.882;2.092;2024-01-30T10:36:55;7.03;;;2.67;;
84652;SDS011;74883;48.882;2.092;2024-01-30T10:39:30;10.82;;;3.05;;
84652;SDS011;74883;48.882;2.092;2024-01-30T10:41:59;11.38;;;2.95;;
84652;SDS011;74883;48.882;2.092;2024-01-30T10:44:30;10.50;;;3.25;;
84652;SDS011;74883;48.882;2.092;2024-01-30T10:47:06;8.65;;;2.40;;
84652;SDS011;74883;48.882;2.092;2024-01-30T10:49:36;12.18;;;2.20;;
84652;SDS011;74883;48.882;2.092;2024-01-30T10:52:03;8.15;;;2.22;;
84652;SDS011;74883;48.882;2.092;2024-01-30T10:54:30;7.53;;;2.17;;
84652;SDS011;74883;48.882;2.092;2024-01-30T10:56:58;10.32;;;3.00;;
84652;SDS011;74883;48.882;2.092;2024-01-30T10:59:26;12.80;;;2.33;;
84652;SDS011;74883;48.882;2.092;2024-01-30T11:01:52;10.23;;;2.78;;
84652;SDS011;74883;48.882;2.092;2024-01-30T11:04:18;7.68;;;1.60;;
84652;SDS011;74883;48.882;2.092;2024-01-30T11:06:44;6.40;;;2.10;;
84652;SDS011;74883;48.882;2.092;2024-01-30T11:09:10;4.35;;;1.77;;
84652;SDS011;74883;48.882;2.092;2024-01-30T11:11:56;9.70;;;2.90;;
84652;SDS011;74883;48.882;2.092;2024-01-30T11:14:26;7.45;;;1.63;;
84652;SDS011;74883;48.882;2.092;2024-01-30T11:16:56;5.38;;;1.50;;
84652;SDS011;74883;48.882;2.092;2024-01-30T11:19:23;7.97;;;2.20;;
84652;SDS011;74883;48.882;2.092;2024-01-30T11:21:54;4.07;;;1.60;;
84652;SDS011;74883;48.882;2.092;2024-01-30T11:24:21;6.47;;;1.52;;
84652;SDS011;74883;48.882;2.092;2024-01-30T11:26:57;6.18;;;1.50;;
84652;SDS011;74883;48.882;2.092;2024-01-30T11:29:24;5.35;;;1.63;;
84652;SDS011;74883;48.882;2.092;2024-01-30T11:31:54;5.68;;;1.17;;
84652;SDS011;74883;48.882;2.092;2024-01-30T11:34:21;4.63;;;1.45;;
84652;SDS011;74883;48.882;2.092;2024-01-30T11:36:53;4.47;;;1.20;;
84652;SDS011;74883;48.882;2.092;2024-01-30T11:39:24;8.98;;;1.40;;
84652;SDS011;74883;48.882;2.092;2024-01-30T11:41:51;6.60;;;1.88;;
84652;SDS011;74883;48.882;2.092;2024-01-30T11:44:17;7.05;;;1.95;;
84652;SDS011;74883;48.882;2.092;2024-01-30T11:46:45;4.95;;;1.08;;
84652;SDS011;74883;48.882;2.092;2024-01-30T11:49:10;7.45;;;1.50;;
84652;SDS011;74883;48.882;2.092;2024-01-30T11:51:36;4.60;;;1.30;;
84652;SDS011;74883;48.882;2.092;2024-01-30T11:54:01;4.57;;;1.58;;
84652;SDS011;74883;48.882;2.092;2024-01-30T11:56:26;6.07;;;2.28;;
84652;SDS011;74883;48.882;2.092;2024-01-30T11:58:52;5.05;;;1.45;;
84652;SDS011;74883;48.882;2.092;2024-01-30T12:01:17;7.50;;;1.40;;
84652;SDS011;74883;48.882;2.092;2024-01-30T12:03:43;6.88;;;1.92;;
84652;SDS011;74883;48.882;2.092;2024-01-30T12:06:15;6.70;;;1.27;;
84652;SDS011;74883;48.882;2.092;2024-01-30T12:08:41;3.33;;;1.10;;
84652;SDS011;74883;48.882;2.092;2024-01-30T12:11:06;3.22;;;1.27;;
84652;SDS011;74883;48.882;2.092;2024-01-30T12:13:31;7.63;;;1.60;;
84652;SDS011;74883;48.882;2.092;2024-01-30T12:15:57;3.78;;;1.30;;
84652;SDS011;74883;48.882;2.092;2024-01-30T12:18:22;3.65;;;1.08;;
84652;SDS011;74883;48.882;2.092;2024-01-30T12:21:00;5.17;;;1.03;;
84652;SDS011;74883;48.882;2.092;2024-01-30T12:23:26;3.65;;;1.00;;
84652;SDS011;74883;48.882;2.092;2024-01-30T12:25:52;4.68;;;1.05;;
84652;SDS011;74883;48.882;2.092;2024-01-30T12:28:18;3.65;;;1.48;;
84652;SDS011;74883;48.882;2.092;2024-01-30T12:30:44;3.65;;;1.05;;
84652;SDS011;74883;48.882;2.092;2024-01-30T12:33:09;5.37;;;1.60;;
84652;SDS011;74883;48.882;2.092;2024-01-30T12:35:35;4.30;;;1.23;;
84652;SDS011;74883;48.882;2.092;2024-01-30T12:38:00;4.13;;;1.20;;
84652;SDS011;74883;48.882;2.092;2024-01-30T12:40:26;6.20;;;1.48;;
84652;SDS011;74883;48.882;2.092;2024-01-30T12:42:51;7.43;;;2.17;;
84652;SDS011;74883;48.882;2.092;2024-01-30T12:45:17;3.97;;;1.30;;
84652;SDS011;74883;48.882;2.092;2024-01-30T12:47:46;3.55;;;1.10;;
84652;SDS011;74883;48.882;2.092;2024-01-30T12:50:12;4.07;;;1.33;;
84652;SDS011;74883;48.882;2.092;2024-01-30T12:52:40;4.47;;;1.15;;
84652;SDS011;74883;48.882;2.092;2024-01-30T12:55:06;4.47;;;1.48;;
84652;SDS011;74883;48.882;2.092;2024-01-30T12:57:31;5.32;;;1.40;;
84652;SDS011;74883;48.882;2.092;2024-01-30T12:59:57;6.47;;;1.37;;
84652;SDS011;74883;48.882;2.092;2024-01-30T13:02:22;5.00;;;1.10;;
84652;SDS011;74883;48.882;2.092;2024-01-30T13:04:48;4.43;;;1.27;;
84652;SDS011;74883;48.882;2.092;2024-01-30T13:07:13;4.63;;;1.00;;
84652;SDS011;74883;48.882;2.092;2024-01-30T13:09:39;3.70;;;0.90;;
84652;SDS011;74883;48.882;2.092;2024-01-30T13:12:04;4.00;;;1.10;;
84652;SDS011;74883;48.882;2.092;2024-01-30T13:14:30;2.38;;;0.80;;
84652;SDS011;74883;48.882;2.092;2024-01-30T13:16:55;6.03;;;1.10;;
84652;SDS011;74883;48.882;2.092;2024-01-30T13:19:20;4.43;;;1.20;;
84652;SDS011;74883;48.882;2.092;2024-01-30T13:21:46;3.03;;;0.90;;
84652;SDS011;74883;48.882;2.092;2024-01-30T13:24:12;2.80;;;1.02;;
84652;SDS011;74883;48.882;2.092;2024-01-30T13:26:38;3.65;;;0.88;;
84652;SDS011;74883;48.882;2.092;2024-01-30T13:29:04;3.38;;;1.10;;
84652;SDS011;74883;48.882;2.092;2024-01-30T13:31:29;3.83;;;1.02;;
84652;SDS011;74883;48.882;2.092;2024-01-30T13:33:55;4.22;;;1.10;;
84652;SDS011;74883;48.882;2.092;2024-01-30T13:36:21;3.40;;;1.08;;
84652;SDS011;74883;48.882;2.092;2024-01-30T13:38:47;4.55;;;1.00;;
84652;SDS011;74883;48.882;2.092;2024-01-30T13:41:12;4.07;;;1.00;;
84652;SDS011;74883;48.882;2.092;2024-01-30T13:43:38;3.20;;;0.90;;
84652;SDS011;74883;48.882;2.092;2024-01-30T13:46:03;3.57;;;0.80;;
84652;SDS011;74883;48.882;2.092;2024-01-30T13:48:29;4.50;;;0.90;;
84652;SDS011;74883;48.882;2.092;2024-01-30T13:50:55;2.55;;;0.93;;
84652;SDS011;74883;48.882;2.092;2024-01-30T13:53:20;1.45;;;0.65;;
84652;SDS011;74883;48.882;2.092;2024-01-30T13:55:46;0.70;;;0.40;;
84652;SDS011;74883;48.882;2.092;2024-01-30T13:58:12;2.55;;;0.82;;
84652;SDS011;74883;48.882;2.092;2024-01-30T14:00:37;1.48;;;0.50;;
84652;SDS011;74883;48.882;2.092;2024-01-30T14:03:03;3.30;;;0.60;;
84652;SDS011;74883;48.882;2.092;2024-01-30T14:05:29;1.90;;;0.32;;
84652;SDS011;74883;48.882;2.092;2024-01-30T14:07:55;4.00;;;0.73;;
84652;SDS011;74883;48.882;2.092;2024-01-30T14:10:21;1.88;;;0.68;;
84652;SDS011;74883;48.882;2.092;2024-01-30T14:12:46;2.30;;;0.65;;
84652;SDS011;74883;48.882;2.092;2024-01-30T14:15:15;2.20;;;0.52;;
84652;SDS011;74883;48.882;2.092;2024-01-30T14:17:42;1.67;;;0.60;;
84652;SDS011;74883;48.882;2.092;2024-01-30T14:20:08;3.10;;;0.77;;
84652;SDS011;74883;48.882;2.092;2024-01-30T14:22:33;2.42;;;0.68;;
84652;SDS011;74883;48.882;2.092;2024-01-30T14:25:00;3.88;;;0.75;;
84652;SDS011;74883;48.882;2.092;2024-01-30T14:27:25;1.33;;;0.50;;
84652;SDS011;74883;48.882;2.092;2024-01-30T14:29:51;2.37;;;0.80;;
84652;SDS011;74883;48.882;2.092;2024-01-30T14:32:16;3.97;;;1.27;;
84652;SDS011;74883;48.882;2.092;2024-01-30T14:34:41;2.50;;;0.60;;
84652;SDS011;74883;48.882;2.092;2024-01-30T14:37:07;1.90;;;0.70;;
84652;SDS011;74883;48.882;2.092;2024-01-30T14:39:32;1.17;;;0.60;;
84652;SDS011;74883;48.882;2.092;2024-01-30T14:41:58;2.95;;;0.50;;